Date,TemperatureHighF,TemperatureAvgF,TemperatureLowF,DewpointHighF,DewpointAvgF,DewpointLowF,HumidityHigh,HumidityAvg,HumidityLow,PressureMaxIn,PressureMinIn,WindSpeedMaxMPH,WindSpeedAvgMPH,GustSpeedMaxMPH,PrecipitationSumIn
2013-1-1,54.5,45.7,39.0,38.8,33.2,29.8,43,40,38,30.04,29.99,0,-999,0,0.00
2013-1-2,57.6,44.0,35.6,35.2,30.2,28.0,42,39,38,30.01,29.90,0,-999,0,0.00
2013-1-3,57.0,44.2,36.0,37.0,31.5,28.0,43,40,37,30.04,29.93,0,-999,0,0.00
2013-1-4,58.8,46.6,38.7,37.2,33.3,29.8,42,38,34,30.07,29.96,0,-999,0,0.00
2013-1-5,57.0,49.1,39.9,46.8,40.6,32.7,44,40,37,30.04,29.84,0,-999,0,0.00
2013-1-6,52.2,49.1,43.0,47.3,43.9,38.8,46,45,44,29.99,29.84,0,-999,0,0.08
2013-1-7,60.6,49.7,41.2,52.3,42.6,37.6,46,45,44,30.04,29.96,0,-999,0,0.00
2013-1-8,64.8,52.4,45.1,52.5,42.6,38.8,46,46,44,30.01,29.93,0,-999,0,0.00
2013-1-9,59.0,50.5,45.1,49.6,42.0,33.6,46,46,46,29.93,29.81,0,-999,0,0.00
2013-1-10,54.9,48.0,42.8,36.9,31.4,27.5,46,44,41,29.99,29.87,0,-999,0,0.00
2013-1-11,55.6,46.2,37.6,36.9,31.3,27.7,42,40,38,30.04,29.90,0,-999,0,0.00
2013-1-12,52.7,42.8,36.7,34.2,26.3,18.5,40,38,36,30.04,29.93,0,-999,0,0.00
2013-1-13,51.3,39.6,32.2,25.3,21.9,17.4,37,36,35,30.04,29.96,0,-999,0,0.00
2013-1-14,51.3,39.7,31.3,21.2,17.3,14.2,36,35,33,30.19,30.01,0,-999,0,0.00
2013-1-15,55.2,42.0,33.1,25.9,22.3,18.5,35,34,34,30.25,30.16,0,-999,0,0.00
2013-1-16,57.2,42.9,33.8,29.1,25.8,23.0,35,34,33,30.22,30.01,0,-999,0,0.00
2013-1-17,62.2,45.7,34.9,32.7,28.6,25.7,35,34,34,30.04,29.93,0,-999,0,0.00
2013-1-18,63.0,47.9,37.2,35.8,30.7,27.5,38,36,34,30.01,29.90,0,-999,0,0.00
2013-1-19,62.6,47.7,36.9,34.3,30.4,25.3,38,36,36,30.01,29.93,0,-999,0,0.00
2013-1-20,63.7,47.9,37.0,37.0,29.3,25.5,37,36,35,30.01,29.90,0,-999,0,0.00
2013-1-21,63.9,47.9,36.1,34.2,29.1,24.6,37,35,34,29.96,29.84,0,-999,0,0.00
2013-1-22,62.6,49.0,37.9,36.7,31.7,27.3,36,35,35,29.87,29.78,0,-999,0,0.00
2013-1-23,55.9,51.8,48.0,48.7,41.4,32.7,40,37,36,29.87,29.75,0,-999,0,0.00
2013-1-24,58.5,55.7,52.5,52.5,50.3,48.2,43,42,39,29.96,29.84,0,-999,0,0.00
2013-1-25,67.3,60.2,56.7,57.6,53.3,51.1,45,44,43,29.96,29.81,0,-999,0,0.04
2013-1-26,63.1,54.9,46.2,53.2,41.9,32.7,45,43,40,29.87,29.78,0,-999,0,0.00
2013-1-27,59.7,51.2,46.2,38.5,32.2,25.2,43,40,38,29.96,29.87,0,-999,0,0.00
2013-1-28,60.4,50.6,44.6,39.7,34.2,30.0,40,39,38,30.07,29.93,0,-999,0,0.00
2013-1-29,59.9,49.7,41.2,39.0,35.8,33.3,39,38,37,30.13,30.04,0,-999,0,0.00
2013-1-30,68.4,53.3,44.6,41.0,35.9,31.6,41,39,37,30.13,30.04,0,-999,0,0.00
2013-1-31,65.1,51.3,41.0,43.5,36.1,32.0,44,42,40,30.07,29.96,0,-999,0,0.00